createdAt,value
2018-09-26T00:02:13.226Z,4.70
2018-09-26T00:04:47.259Z,3.90
2018-09-26T00:07:15.835Z,5.20
2018-09-26T00:09:43.862Z,4.83
2018-09-26T00:12:12.739Z,3.80
2018-09-26T00:14:41.271Z,4.50
2018-09-26T00:17:09.094Z,4.30
2018-09-26T00:19:37.935Z,4.23
2018-09-26T00:22:05.811Z,4.50
2018-09-26T00:24:33.865Z,4.20
2018-09-26T00:27:01.757Z,4.70
2018-09-26T00:29:29.689Z,3.30
2018-09-26T00:31:57.395Z,4.03
2018-09-26T00:34:25.761Z,4.20
2018-09-26T00:36:53.620Z,4.37
2018-09-26T00:39:21.186Z,4.37
2018-09-26T00:41:48.966Z,4.00
2018-09-26T00:44:16.690Z,5.53
2018-09-26T00:46:44.751Z,4.30
2018-09-26T00:49:12.530Z,3.90
2018-09-26T00:51:40.323Z,4.10
2018-09-26T00:54:08.223Z,3.73
2018-09-26T00:56:35.991Z,4.07
2018-09-26T00:59:03.819Z,4.00
2018-09-26T01:01:31.671Z,4.60
2018-09-26T01:04:00.431Z,4.50
2018-09-26T01:06:28.197Z,3.90
2018-09-26T01:08:56.066Z,3.60
2018-09-26T01:11:24.744Z,3.93
2018-09-26T01:13:52.727Z,4.70
2018-09-26T01:16:20.611Z,3.57
2018-09-26T01:18:48.384Z,4.97
2018-09-26T01:21:16.734Z,3.70
2018-09-26T01:23:44.328Z,5.10
2018-09-26T01:26:11.865Z,3.43
2018-09-26T01:28:39.475Z,5.20
2018-09-26T01:31:07.045Z,3.57
2018-09-26T01:33:34.622Z,3.40
2018-09-26T01:36:02.634Z,3.10
2018-09-26T01:38:30.447Z,3.93
2018-09-26T01:40:58.017Z,4.33
2018-09-26T01:43:25.575Z,3.90
2018-09-26T01:45:53.140Z,4.37
2018-09-26T01:48:20.689Z,4.63
2018-09-26T01:50:48.238Z,4.27
2018-09-26T01:53:15.739Z,4.10
2018-09-26T01:55:43.293Z,3.47
2018-09-26T01:58:10.828Z,3.73
2018-09-26T02:00:38.405Z,4.53
2018-09-26T02:03:06.008Z,3.70
2018-09-26T02:05:33.580Z,4.27
2018-09-26T02:08:01.119Z,4.00
2018-09-26T02:10:28.713Z,3.70
2018-09-26T02:12:56.261Z,4.23
2018-09-26T02:15:23.833Z,3.60
2018-09-26T02:17:51.400Z,3.00
2018-09-26T02:20:19.362Z,3.30
2018-09-26T02:22:47.399Z,3.87
2018-09-26T02:25:15.470Z,3.53
2018-09-26T02:27:44.263Z,4.07
2018-09-26T02:30:12.726Z,3.20
2018-09-26T02:32:40.385Z,4.40
2018-09-26T02:35:08.138Z,3.60
2018-09-26T02:37:36.197Z,4.43
2018-09-26T02:40:04.783Z,4.23
2018-09-26T02:42:33.369Z,4.53
2018-09-26T02:45:01.964Z,4.23
2018-09-26T02:47:29.800Z,4.33
2018-09-26T02:49:57.580Z,4.60
2018-09-26T02:52:25.465Z,3.60
2018-09-26T02:54:53.127Z,3.57
2018-09-26T02:57:20.935Z,2.90
2018-09-26T02:59:49.156Z,3.07
2018-09-26T03:02:17.699Z,3.40
2018-09-26T03:04:45.749Z,3.30
2018-09-26T03:07:14.020Z,3.13
2018-09-26T03:09:42.842Z,3.30
2018-09-26T03:12:11.452Z,3.10
2018-09-26T03:14:39.591Z,3.90
2018-09-26T03:17:08.123Z,2.90
2018-09-26T03:19:35.954Z,3.50
2018-09-26T03:22:03.757Z,3.47
2018-09-26T03:24:31.542Z,3.13
2018-09-26T03:26:59.364Z,2.57
2018-09-26T03:29:27.364Z,2.97
2018-09-26T03:31:55.192Z,3.10
2018-09-26T03:34:22.863Z,2.73
2018-09-26T03:36:50.695Z,2.17
2018-09-26T03:39:18.466Z,2.90
2018-09-26T03:41:46.187Z,2.53
2018-09-26T03:44:14.231Z,2.77
2018-09-26T03:46:43.158Z,2.70
2018-09-26T03:49:11.658Z,3.60
2018-09-26T03:51:39.337Z,2.90
2018-09-26T03:54:07.366Z,3.00
2018-09-26T03:56:35.859Z,3.00
2018-09-26T03:59:03.659Z,3.50
2018-09-26T04:01:31.568Z,2.93
2018-09-26T04:04:00.207Z,3.67
2018-09-26T04:06:28.800Z,2.90
2018-09-26T04:08:56.729Z,3.63
2018-09-26T04:11:24.773Z,3.10
2018-09-26T04:13:52.579Z,3.00
2018-09-26T04:16:20.994Z,2.80
2018-09-26T04:18:48.965Z,4.20
2018-09-26T04:21:16.816Z,3.60
2018-09-26T04:23:44.526Z,3.00
2018-09-26T04:26:13.246Z,3.60
2018-09-26T04:28:41.218Z,3.10
2018-09-26T04:33:43.496Z,3.53
2018-09-26T04:36:12.161Z,3.07
2018-09-26T04:38:39.759Z,2.80
2018-09-26T04:41:07.315Z,3.80
2018-09-26T04:43:35.458Z,3.27
2018-09-26T04:46:03.415Z,3.07
2018-09-26T04:48:31.407Z,3.50
2018-09-26T04:51:00.299Z,2.90
2018-09-26T04:53:28.991Z,3.50
2018-09-26T04:55:56.793Z,4.07
2018-09-26T04:58:24.700Z,3.60
2018-09-26T05:00:52.361Z,3.67
2018-09-26T05:03:20.080Z,3.63
2018-09-26T05:05:47.838Z,3.40
2018-09-26T05:08:17.169Z,3.40
2018-09-26T05:10:45.539Z,4.00
2018-09-26T05:13:14.741Z,3.10
2018-09-26T05:15:42.371Z,3.13
2018-09-26T05:18:11.324Z,4.10
2018-09-26T05:20:39.278Z,3.80
2018-09-26T05:23:07.230Z,4.00
2018-09-26T05:25:35.081Z,2.90
2018-09-26T05:28:03.037Z,4.40
2018-09-26T05:30:30.950Z,3.37
2018-09-26T05:32:58.743Z,4.60
2018-09-26T05:35:26.656Z,3.33
2018-09-26T05:37:54.707Z,4.80
2018-09-26T05:40:22.980Z,4.17
2018-09-26T05:42:50.715Z,5.20
2018-09-26T05:45:18.385Z,4.93
2018-09-26T05:47:46.092Z,5.33
2018-09-26T05:50:14.259Z,4.70
2018-09-26T05:52:42.433Z,5.67
2018-09-26T05:55:10.270Z,6.77
2018-09-26T05:57:38.184Z,8.03
2018-09-26T06:00:06.080Z,6.90
2018-09-26T06:02:33.918Z,8.10
2018-09-26T06:05:01.594Z,6.20
2018-09-26T06:07:29.363Z,7.77
2018-09-26T06:09:57.374Z,10.20
2018-09-26T06:12:25.334Z,9.70
2018-09-26T06:14:53.617Z,8.67
2018-09-26T06:17:21.455Z,9.17
2018-09-26T06:19:49.258Z,8.33
2018-09-26T06:22:17.241Z,10.20
2018-09-26T06:24:45.774Z,10.63
2018-09-26T06:27:13.610Z,10.67
2018-09-26T06:29:41.386Z,11.17
2018-09-26T06:32:09.292Z,7.43
2018-09-26T06:34:37.101Z,10.90
2018-09-26T06:37:05.078Z,8.30
2018-09-26T06:39:33.040Z,11.43
2018-09-26T06:42:00.906Z,9.23
2018-09-26T06:44:29.612Z,10.60
2018-09-26T06:46:58.208Z,10.33
2018-09-26T06:49:26.478Z,8.77
2018-09-26T06:51:54.423Z,10.07
2018-09-26T06:54:22.328Z,10.57
2018-09-26T06:56:51.155Z,10.97
2018-09-26T06:59:18.881Z,11.60
2018-09-26T07:01:46.807Z,7.53
2018-09-26T07:04:15.929Z,10.33
2018-09-26T07:06:44.413Z,6.63
2018-09-26T07:09:12.404Z,8.93
2018-09-26T07:11:40.305Z,11.00
2018-09-26T07:14:09.387Z,9.80
2018-09-26T07:16:37.128Z,11.27
2018-09-26T07:19:04.906Z,11.10
2018-09-26T07:21:32.745Z,10.37
2018-09-26T07:24:00.435Z,9.43
2018-09-26T07:26:28.846Z,8.70
2018-09-26T07:28:57.762Z,10.00
2018-09-26T07:31:25.578Z,9.93
2018-09-26T07:33:53.574Z,9.90
2018-09-26T07:36:21.107Z,11.00
2018-09-26T07:38:48.699Z,9.57
2018-09-26T07:41:16.249Z,9.57
2018-09-26T07:43:44.056Z,7.70
2018-09-26T07:46:11.878Z,9.30
2018-09-26T07:48:40.288Z,10.73
2018-09-26T07:51:08.177Z,10.97
2018-09-26T07:53:36.253Z,11.63
2018-09-26T07:56:04.202Z,11.33
2018-09-26T07:58:32.044Z,6.47
2018-09-26T08:01:00.533Z,11.17
2018-09-26T08:03:28.427Z,7.17
2018-09-26T08:05:56.347Z,11.03
2018-09-26T08:08:24.995Z,8.27
2018-09-26T08:10:53.326Z,9.23
2018-09-26T08:13:21.240Z,9.70
2018-09-26T08:15:49.906Z,11.50
2018-09-26T08:18:18.501Z,8.30
2018-09-26T08:20:46.893Z,9.80
2018-09-26T08:23:14.684Z,11.37
2018-09-26T08:25:43.527Z,10.97
2018-09-26T08:28:11.569Z,9.10
2018-09-26T08:30:39.439Z,10.17
2018-09-26T08:33:07.511Z,11.10
2018-09-26T08:35:35.079Z,11.00
2018-09-26T08:38:02.633Z,10.40
2018-09-26T08:40:30.163Z,11.33
2018-09-26T08:43:04.553Z,10.77
2018-09-26T08:45:32.506Z,5.47
2018-09-26T08:48:00.147Z,12.37
2018-09-26T08:50:27.955Z,10.00
2018-09-26T08:52:55.805Z,11.40
2018-09-26T08:55:23.579Z,11.03
2018-09-26T08:57:51.414Z,11.30
2018-09-26T09:00:23.379Z,11.30
2018-09-26T09:02:51.189Z,8.10
2018-09-26T09:05:19.092Z,9.97
2018-09-26T09:07:47.120Z,7.17
2018-09-26T09:10:14.971Z,10.20
2018-09-26T09:12:43.066Z,9.00
2018-09-26T09:15:11.063Z,7.60
2018-09-26T09:17:39.659Z,8.70
2018-09-26T09:20:07.563Z,10.80
2018-09-26T09:22:35.946Z,3.10
2018-09-26T09:25:03.791Z,10.70
2018-09-26T09:27:31.760Z,10.17
2018-09-26T09:30:00.483Z,9.90
2018-09-26T09:32:28.283Z,10.40
2018-09-26T09:34:56.108Z,9.80
2018-09-26T09:37:23.911Z,8.20
2018-09-26T09:39:52.365Z,3.00
2018-09-26T09:42:19.952Z,10.20
2018-09-26T09:44:47.550Z,6.87
2018-09-26T09:47:15.377Z,11.10
2018-09-26T09:49:43.294Z,7.40
2018-09-26T09:52:12.145Z,9.60
2018-09-26T09:54:40.193Z,11.77
2018-09-26T09:57:08.019Z,10.13
2018-09-26T09:59:35.805Z,12.23
2018-09-26T10:02:03.725Z,7.70
2018-09-26T10:04:32.315Z,8.17
2018-09-26T10:07:00.270Z,3.40
2018-09-26T10:09:28.363Z,10.53
2018-09-26T10:11:56.371Z,11.30
2018-09-26T10:14:24.281Z,10.00
2018-09-26T10:16:52.126Z,11.93
2018-09-26T10:19:19.927Z,6.50
2018-09-26T10:21:48.756Z,9.30
2018-09-26T10:24:16.668Z,11.03
2018-09-26T10:26:44.815Z,8.13
2018-09-26T10:29:13.250Z,8.80
2018-09-26T10:31:40.901Z,11.07
2018-09-26T10:34:08.694Z,9.43
2018-09-26T10:36:36.551Z,10.30
2018-09-26T10:39:04.840Z,6.93
2018-09-26T10:41:32.507Z,11.73
2018-09-26T10:44:00.187Z,9.33
2018-09-26T10:46:27.857Z,10.30
2018-09-26T10:48:56.231Z,12.33
2018-09-26T10:51:24.233Z,9.40
2018-09-26T10:53:52.185Z,12.30
2018-09-26T10:56:20.114Z,12.13
2018-09-26T10:58:48.416Z,9.30
2018-09-26T11:01:16.414Z,11.27
2018-09-26T11:03:44.235Z,11.67
2018-09-26T11:06:12.997Z,11.70
2018-09-26T11:08:40.792Z,10.93
2018-09-26T11:11:08.552Z,10.50
2018-09-26T11:13:36.523Z,9.03
2018-09-26T11:16:04.593Z,10.23
2018-09-26T11:18:32.394Z,10.27
2018-09-26T11:21:00.225Z,7.47
2018-09-26T11:23:29.041Z,10.37
2018-09-26T11:25:57.977Z,9.47
2018-09-26T11:28:25.920Z,7.93
2018-09-26T11:30:53.399Z,10.40
2018-09-26T11:33:21.110Z,11.27
2018-09-26T11:35:48.605Z,10.30
2018-09-26T11:38:16.245Z,11.30
2018-09-26T11:40:43.803Z,5.70
2018-09-26T11:43:11.730Z,8.00
2018-09-26T11:45:39.681Z,10.10
2018-09-26T11:48:07.626Z,10.40
2018-09-26T11:50:35.219Z,7.80
2018-09-26T11:53:02.886Z,9.40
2018-09-26T11:55:30.533Z,9.70
2018-09-26T11:57:58.241Z,7.80
2018-09-26T12:00:25.805Z,10.90
2018-09-26T12:02:53.438Z,12.47
2018-09-26T12:05:20.995Z,11.40
2018-09-26T12:07:48.565Z,9.17
2018-09-26T12:10:16.181Z,12.80
2018-09-26T12:12:44.538Z,13.10
2018-09-26T12:15:13.600Z,12.10
2018-09-26T12:17:41.475Z,5.87
2018-09-26T12:20:09.287Z,7.07
2018-09-26T12:22:37.200Z,12.67
2018-09-26T12:25:05.123Z,11.63
2018-09-26T12:27:32.714Z,9.93
2018-09-26T12:30:00.264Z,4.73
2018-09-26T12:32:27.847Z,11.73
2018-09-26T12:34:55.516Z,6.60
2018-09-26T12:37:23.077Z,11.57
2018-09-26T12:39:50.608Z,10.70
2018-09-26T12:42:18.293Z,10.07
2018-09-26T12:44:45.875Z,11.20
2018-09-26T12:47:13.522Z,11.07
2018-09-26T12:49:41.168Z,10.47
2018-09-26T12:52:08.767Z,9.00
2018-09-26T12:54:36.341Z,11.13
2018-09-26T12:57:03.943Z,11.00
2018-09-26T12:59:31.509Z,8.97
2018-09-26T13:01:59.077Z,11.20
2018-09-26T13:04:26.768Z,11.33
2018-09-26T13:06:54.287Z,8.67
2018-09-26T13:09:21.863Z,9.43
2018-09-26T13:11:49.401Z,11.00
2018-09-26T13:14:17.123Z,10.53
2018-09-26T13:16:44.707Z,10.30
2018-09-26T13:19:13.574Z,10.70
2018-09-26T13:21:42.026Z,8.87
2018-09-26T13:24:09.920Z,7.90
2018-09-26T13:26:38.614Z,11.77
2018-09-26T13:29:07.254Z,9.10
2018-09-26T13:31:35.675Z,8.97
2018-09-26T13:34:04.197Z,5.13
2018-09-26T13:36:32.503Z,7.30
2018-09-26T13:39:00.383Z,8.20
2018-09-26T13:41:28.208Z,4.40
2018-09-26T13:43:56.201Z,7.70
2018-09-26T13:46:24.322Z,8.80
2018-09-26T13:48:52.083Z,8.70
2018-09-26T13:51:20.485Z,6.73
2018-09-26T13:53:48.504Z,10.93
2018-09-26T13:56:16.434Z,8.67
2018-09-26T13:58:44.983Z,11.40
2018-09-26T14:01:12.722Z,13.43
2018-09-26T14:03:41.326Z,12.00
2018-09-26T14:06:08.880Z,11.50
2018-09-26T14:08:36.503Z,10.67
2018-09-26T14:11:04.078Z,10.63
2018-09-26T14:13:31.623Z,12.63
2018-09-26T14:15:59.251Z,11.43
2018-09-26T14:18:27.067Z,10.60
2018-09-26T14:20:54.977Z,11.00
2018-09-26T14:23:23.529Z,8.10
2018-09-26T14:25:51.563Z,13.50
2018-09-26T14:28:20.193Z,10.57
2018-09-26T14:30:48.400Z,8.60
2018-09-26T14:33:17.426Z,4.70
2018-09-26T14:35:45.300Z,7.03
2018-09-26T14:38:13.260Z,7.80
2018-09-26T14:40:40.983Z,3.30
2018-09-26T14:43:08.883Z,10.60
2018-09-26T14:45:36.788Z,12.60
2018-09-26T14:48:05.769Z,11.20
2018-09-26T14:50:33.594Z,11.20
2018-09-26T14:53:03.368Z,9.80
2018-09-26T14:55:31.849Z,6.90
2018-09-26T14:58:00.112Z,3.60
2018-09-26T15:00:28.047Z,9.60
2018-09-26T15:02:56.663Z,10.80
2018-09-26T15:05:25.266Z,6.33
2018-09-26T15:07:53.200Z,8.40
2018-09-26T15:10:21.245Z,6.00
2018-09-26T15:12:49.078Z,8.10
2018-09-26T15:15:17.253Z,8.70
2018-09-26T15:17:45.014Z,6.43
2018-09-26T15:20:12.904Z,6.80
2018-09-26T15:22:40.801Z,2.73
2018-09-26T15:25:09.063Z,7.07
2018-09-26T15:27:36.883Z,7.60
2018-09-26T15:30:04.637Z,1.80
2018-09-26T15:32:32.336Z,3.63
2018-09-26T15:34:59.909Z,1.73
2018-09-26T15:37:27.468Z,4.80
2018-09-26T15:39:55.074Z,1.77
2018-09-26T15:42:22.668Z,3.90
2018-09-26T15:44:50.201Z,4.67
2018-09-26T15:47:17.744Z,5.10
2018-09-26T15:49:45.322Z,1.93
2018-09-26T15:52:13.035Z,5.83
2018-09-26T15:54:40.558Z,4.20
2018-09-26T15:57:08.345Z,4.13
2018-09-26T15:59:36.169Z,2.87
2018-09-26T16:02:03.829Z,2.67
2018-09-26T16:04:31.399Z,4.50
2018-09-26T16:06:58.942Z,2.23
2018-09-26T16:09:26.478Z,2.53
2018-09-26T16:11:54.059Z,3.27
2018-09-26T16:14:21.689Z,3.47
2018-09-26T16:16:50.154Z,1.60
2018-09-26T16:19:17.987Z,4.13
2018-09-26T16:21:45.752Z,4.00
2018-09-26T16:24:13.961Z,2.00
2018-09-26T16:26:42.550Z,4.00
2018-09-26T16:29:10.084Z,2.77
2018-09-26T16:31:38.756Z,3.00
2018-09-26T16:34:06.764Z,3.63
2018-09-26T16:36:34.538Z,2.70
2018-09-26T16:39:02.283Z,4.20
2018-09-26T16:41:29.954Z,2.43
2018-09-26T16:43:57.697Z,1.80
2018-09-26T16:46:25.544Z,4.33
2018-09-26T16:48:53.210Z,4.20
2018-09-26T16:51:20.899Z,4.00
2018-09-26T16:53:48.511Z,3.60
2018-09-26T16:56:16.170Z,1.10
2018-09-26T16:58:43.790Z,3.97
2018-09-26T17:01:11.528Z,2.90
2018-09-26T17:03:39.461Z,3.60
2018-09-26T17:06:07.415Z,3.03
2018-09-26T17:08:35.255Z,3.00
2018-09-26T17:11:03.143Z,2.17
2018-09-26T17:13:30.793Z,4.40
2018-09-26T17:15:58.696Z,3.93
2018-09-26T17:18:26.380Z,3.80
2018-09-26T17:20:54.025Z,3.13
2018-09-26T17:23:21.893Z,3.20
2018-09-26T17:25:49.550Z,4.00
2018-09-26T17:28:17.495Z,3.30
2018-09-26T17:30:45.028Z,5.13
2018-09-26T17:33:12.771Z,4.03
2018-09-26T17:35:40.550Z,1.40
2018-09-26T17:38:08.314Z,1.47
2018-09-26T17:40:35.917Z,4.00
2018-09-26T17:43:03.494Z,3.77
2018-09-26T17:45:31.241Z,3.20
2018-09-26T17:47:59.140Z,2.50
2018-09-26T17:50:30.850Z,2.70
2018-09-26T17:52:58.566Z,4.50
2018-09-26T17:55:26.601Z,4.50
2018-09-26T17:57:54.415Z,3.97
2018-09-26T18:00:22.193Z,6.07
2018-09-26T18:02:49.789Z,4.90
2018-09-26T18:05:17.350Z,4.53
2018-09-26T18:07:45.033Z,4.27
2018-09-26T18:10:12.867Z,4.70
2018-09-26T18:12:40.515Z,2.10
2018-09-26T18:15:08.215Z,3.40
2018-09-26T18:17:36.000Z,3.17
2018-09-26T18:20:03.702Z,4.30
2018-09-26T18:22:31.672Z,4.13
2018-09-26T18:24:59.190Z,4.00
2018-09-26T18:27:27.091Z,4.50
2018-09-26T18:29:54.688Z,3.80
2018-09-26T18:32:22.287Z,5.73
2018-09-26T18:34:49.979Z,2.83
2018-09-26T18:37:17.586Z,5.37
2018-09-26T18:39:45.182Z,5.20
2018-09-26T18:42:12.808Z,5.73
2018-09-26T18:44:40.666Z,6.50
2018-09-26T18:47:08.445Z,4.40
2018-09-26T18:49:36.138Z,5.70
2018-09-26T18:52:03.762Z,5.40
2018-09-26T18:54:31.483Z,4.20
2018-09-26T18:57:00.134Z,4.23
2018-09-26T18:59:27.755Z,1.73
2018-09-26T19:01:55.582Z,4.93
2018-09-26T19:04:23.554Z,7.30
2018-09-26T19:06:51.508Z,8.40
2018-09-26T19:09:19.244Z,7.37
2018-09-26T19:11:46.948Z,6.60
2018-09-26T19:14:14.823Z,5.20
2018-09-26T19:16:42.601Z,6.20
2018-09-26T19:19:11.146Z,7.87
2018-09-26T19:21:38.760Z,8.03
2018-09-26T19:24:06.362Z,7.57
2018-09-26T19:26:34.109Z,7.70
2018-09-26T19:29:01.798Z,2.93
2018-09-26T19:31:29.549Z,7.33
2018-09-26T19:33:58.263Z,13.88
2018-09-26T19:36:26.247Z,10.57
2018-09-26T19:38:53.864Z,9.80
2018-09-26T19:41:21.536Z,4.97
2018-09-26T19:43:49.384Z,8.10
2018-09-26T19:46:18.127Z,8.17
2018-09-26T19:48:47.029Z,3.13
2018-09-26T19:51:15.760Z,8.17
2018-09-26T19:53:43.519Z,4.47
2018-09-26T19:56:11.305Z,5.53
2018-09-26T19:58:39.093Z,5.63
2018-09-26T20:01:07.317Z,7.50
2018-09-26T20:03:35.062Z,5.63
2018-09-26T20:06:03.063Z,7.37
2018-09-26T20:08:30.971Z,4.27
2018-09-26T20:10:58.756Z,8.37
2018-09-26T20:13:26.589Z,7.53
2018-09-26T20:15:55.565Z,7.90
2018-09-26T20:18:23.597Z,7.20
2018-09-26T20:20:57.094Z,8.77
2018-09-26T20:23:25.817Z,7.60
2018-09-26T20:25:53.707Z,6.00
2018-09-26T20:28:21.531Z,1.67
2018-09-26T20:30:51.315Z,5.07
2018-09-26T20:33:18.999Z,7.30
2018-09-26T20:35:47.682Z,7.70
2018-09-26T20:38:15.957Z,5.50
2018-09-26T20:40:44.105Z,7.00
2018-09-26T20:43:11.910Z,7.10
2018-09-26T20:45:39.888Z,2.40
2018-09-26T20:48:08.167Z,6.10
2018-09-26T20:50:37.292Z,6.97
2018-09-26T20:53:05.014Z,6.53
2018-09-26T20:55:32.778Z,5.93
2018-09-26T20:58:00.557Z,6.47
2018-09-26T21:00:29.911Z,8.20
2018-09-26T21:02:57.931Z,6.33
2018-09-26T21:05:26.658Z,4.90
2018-09-26T21:07:55.108Z,5.43
2018-09-26T21:10:22.933Z,6.40
2018-09-26T21:12:50.666Z,6.90
2018-09-26T21:15:18.483Z,6.30
2018-09-26T21:17:46.078Z,6.17
2018-09-26T21:20:13.926Z,5.57
2018-09-26T21:22:41.979Z,7.40
2018-09-26T21:25:10.542Z,7.50
2018-09-26T21:27:38.515Z,4.13
2018-09-26T21:30:06.448Z,6.90
2018-09-26T21:32:34.379Z,6.90
2018-09-26T21:35:02.452Z,6.23
2018-09-26T21:37:30.314Z,6.67
2018-09-26T21:39:59.187Z,6.67
2018-09-26T21:42:27.005Z,7.17
2018-09-26T21:44:55.242Z,6.67
2018-09-26T21:47:23.751Z,6.70
2018-09-26T21:49:51.546Z,5.63
2018-09-26T21:52:19.370Z,6.87
2018-09-26T21:54:47.782Z,7.83
2018-09-26T21:57:15.706Z,5.00
2018-09-26T21:59:44.201Z,6.20
2018-09-26T22:02:11.993Z,6.70
2018-09-26T22:04:40.910Z,4.40
2018-09-26T22:07:08.738Z,3.77
2018-09-26T22:09:36.395Z,8.10
2018-09-26T22:12:04.222Z,6.33
2018-09-26T22:14:32.172Z,7.30
2018-09-26T22:17:01.062Z,5.50
2018-09-26T22:19:29.062Z,7.60
2018-09-26T22:21:57.021Z,1.27
2018-09-26T22:24:25.938Z,6.27
2018-09-26T22:26:53.711Z,3.10
2018-09-26T22:29:21.601Z,5.63
2018-09-26T22:31:49.384Z,6.13
2018-09-26T22:34:17.831Z,4.67
2018-09-26T22:36:45.762Z,5.63
2018-09-26T22:39:13.662Z,5.20
2018-09-26T22:41:41.418Z,6.60
2018-09-26T22:44:09.697Z,3.63
2018-09-26T22:46:37.365Z,7.27
2018-09-26T22:49:05.386Z,3.30
2018-09-26T22:51:33.310Z,7.00
2018-09-26T22:54:02.243Z,4.73
2018-09-26T22:56:30.041Z,5.20
2018-09-26T22:58:58.503Z,6.73
2018-09-26T23:01:26.418Z,4.13
2018-09-26T23:03:54.534Z,4.23
2018-09-26T23:06:22.361Z,3.87
2018-09-26T23:08:50.402Z,4.60
2018-09-26T23:11:18.214Z,6.60
2018-09-26T23:13:46.037Z,7.00
2018-09-26T23:16:13.926Z,6.53
2018-09-26T23:18:41.926Z,8.60
2018-09-26T23:21:09.667Z,7.10
2018-09-26T23:23:37.573Z,6.07
2018-09-26T23:26:05.449Z,6.50
2018-09-26T23:28:33.262Z,4.57
2018-09-26T23:31:01.078Z,5.40
2018-09-26T23:33:28.754Z,6.30
2018-09-26T23:35:57.758Z,5.10
2018-09-26T23:38:25.655Z,6.63
2018-09-26T23:40:53.427Z,6.53
2018-09-26T23:43:21.226Z,6.30
2018-09-26T23:45:49.884Z,5.90
2018-09-26T23:48:18.277Z,5.87
2018-09-26T23:50:46.271Z,6.50
2018-09-26T23:53:14.121Z,7.50
2018-09-26T23:55:42.093Z,6.53
2018-09-26T23:58:09.865Z,6.10
